createdAt,value
2023-04-30T00:07:36.506Z,12.87
2023-04-30T00:18:02.186Z,12.80
2023-04-30T00:28:28.200Z,12.70
2023-04-30T00:38:53.624Z,12.69
2023-04-30T00:49:19.299Z,12.71
2023-04-30T00:59:45.731Z,12.62
2023-04-30T01:10:13.913Z,12.52
2023-04-30T01:20:40.339Z,12.52
2023-04-30T01:31:22.772Z,12.46
2023-04-30T01:41:57.986Z,12.46
2023-04-30T01:52:32.967Z,12.41
2023-04-30T02:02:59.513Z,12.38
2023-04-30T02:13:25.255Z,12.37
2023-04-30T02:23:50.822Z,12.35
2023-04-30T02:34:16.504Z,12.29
2023-04-30T02:44:42.098Z,12.18
2023-04-30T02:55:17.118Z,12.08
2023-04-30T03:05:42.687Z,11.83
2023-04-30T03:16:09.170Z,11.62
2023-04-30T03:26:35.038Z,11.21
2023-04-30T03:37:01.855Z,10.62
2023-04-30T03:47:27.487Z,10.44
2023-04-30T03:57:54.312Z,10.43
2023-04-30T04:08:20.088Z,10.42
2023-04-30T04:18:45.991Z,10.55
2023-04-30T04:29:12.770Z,10.66
2023-04-30T04:39:38.663Z,10.75
2023-04-30T04:50:05.066Z,10.77
2023-04-30T05:00:30.910Z,10.73
2023-04-30T05:10:56.767Z,10.73
2023-04-30T05:21:23.488Z,10.69
2023-04-30T05:31:49.028Z,10.65
2023-04-30T05:42:14.906Z,10.73
2023-04-30T05:52:41.570Z,10.79
2023-04-30T06:03:07.864Z,10.88
2023-04-30T06:13:34.570Z,10.99
2023-04-30T06:24:00.820Z,11.17
2023-04-30T06:34:26.100Z,11.80
2023-04-30T06:44:51.562Z,12.37
2023-04-30T06:55:17.512Z,12.49
2023-04-30T07:05:43.995Z,12.83
2023-04-30T07:16:11.467Z,13.61
2023-04-30T07:26:37.642Z,14.26
2023-04-30T07:37:03.426Z,14.63
2023-04-30T07:47:29.578Z,14.72
2023-04-30T07:57:55.563Z,14.70
2023-04-30T08:08:21.439Z,14.58
2023-04-30T08:18:49.451Z,14.54
2023-04-30T08:29:15.466Z,14.33
2023-04-30T08:39:41.034Z,14.28
2023-04-30T08:50:07.914Z,14.19
2023-04-30T09:00:35.688Z,14.15
2023-04-30T09:11:02.035Z,14.24
2023-04-30T09:21:38.696Z,14.43
2023-04-30T09:32:11.852Z,14.53
2023-04-30T09:42:38.235Z,14.72
2023-04-30T09:53:10.197Z,14.77
2023-04-30T10:03:36.802Z,14.75
2023-04-30T10:14:04.714Z,14.79
2023-04-30T10:24:31.840Z,14.80
2023-04-30T10:35:11.158Z,14.63
2023-04-30T10:45:44.190Z,14.64
2023-04-30T10:56:11.153Z,14.82
2023-04-30T11:06:56.386Z,14.74
2023-04-30T11:17:28.378Z,14.93
2023-04-30T11:27:57.544Z,15.11
2023-04-30T11:38:31.459Z,15.12
2023-04-30T11:48:58.674Z,15.13
2023-04-30T11:59:24.623Z,15.23
2023-04-30T12:09:57.247Z,15.35
2023-04-30T12:20:24.789Z,15.37
2023-04-30T12:30:50.893Z,15.48
2023-04-30T12:41:17.695Z,15.62
2023-04-30T12:51:45.612Z,15.69
2023-04-30T13:02:15.897Z,15.67
2023-04-30T13:12:41.626Z,15.69
2023-04-30T13:23:07.650Z,15.69
2023-04-30T13:33:33.049Z,15.70
2023-04-30T13:44:00.211Z,15.77
2023-04-30T13:54:25.727Z,15.82
2023-04-30T14:05:04.520Z,15.82
2023-04-30T14:15:33.077Z,15.77
2023-04-30T14:25:59.044Z,15.78
2023-04-30T14:36:25.352Z,15.82
2023-04-30T14:46:51.239Z,15.84
2023-04-30T14:57:18.697Z,15.81
2023-04-30T15:07:44.632Z,15.78
2023-04-30T15:18:10.897Z,15.79
2023-04-30T15:28:37.196Z,15.81
2023-04-30T15:39:03.978Z,15.76
2023-04-30T15:49:29.445Z,15.66
2023-04-30T15:59:56.524Z,15.52
2023-04-30T16:10:23.051Z,15.55
2023-04-30T16:20:50.143Z,15.54
2023-04-30T16:31:16.967Z,15.44
2023-04-30T16:41:43.438Z,15.35
2023-04-30T16:52:09.762Z,15.20
2023-04-30T17:02:35.635Z,15.11
2023-04-30T17:13:04.136Z,15.03
2023-04-30T17:23:29.888Z,14.93
2023-04-30T17:33:56.037Z,14.78
2023-04-30T17:44:21.656Z,14.61
2023-04-30T17:54:47.687Z,14.44
2023-04-30T18:05:14.809Z,14.30
2023-04-30T18:15:42.773Z,14.13
2023-04-30T18:26:08.657Z,13.95
2023-04-30T18:36:36.285Z,13.70
2023-04-30T18:47:02.235Z,13.70
2023-04-30T18:57:28.720Z,13.62
2023-04-30T19:07:54.642Z,13.60
2023-04-30T19:18:20.269Z,13.50
2023-04-30T19:28:45.641Z,13.17
2023-04-30T19:39:12.089Z,12.90
2023-04-30T19:49:38.141Z,12.77
2023-04-30T20:00:06.506Z,12.61
2023-04-30T20:10:33.999Z,12.41
2023-04-30T20:21:00.782Z,12.24
2023-04-30T20:31:31.304Z,11.88
2023-04-30T20:41:59.262Z,11.63
2023-04-30T20:52:24.957Z,11.45
2023-04-30T21:02:52.104Z,11.14
2023-04-30T21:13:17.906Z,10.94
2023-04-30T21:23:47.360Z,10.78
2023-04-30T21:34:13.995Z,10.62
2023-04-30T21:44:40.258Z,10.40
2023-04-30T21:55:06.718Z,10.25
2023-04-30T22:05:32.503Z,10.04
2023-04-30T22:15:58.412Z,9.87
2023-04-30T22:26:25.439Z,9.63
2023-04-30T22:36:51.805Z,9.36
2023-04-30T22:47:18.433Z,9.14
2023-04-30T22:57:44.343Z,8.97
2023-04-30T23:08:10.260Z,8.72
2023-04-30T23:18:37.163Z,8.60
2023-04-30T23:29:02.941Z,8.40
2023-04-30T23:39:29.206Z,8.26
2023-04-30T23:49:55.351Z,8.20
